Time;durP1;ratioP1;P1;durP2;ratioP2;P2;SDS_P1;SDS_P2;PMS_P1;PMS_P2;Temp;Humidity;BMP_temperature;BMP_pressure;BME280_temperature;BME280_humidity;BME280_pressure;Samples;Min_cycle;Max_cycle;Signal;HPM_P1;HPM_P2
2022/10/22 00:01:19;;;;;;;27.27;21.48;;;;;;;12.58;100.00;100861.13;5043186;28;20184;-46
2022/10/22 00:03:45;;;;;;;28.95;21.88;;;;;;;12.50;100.00;100855.22;5040287;28;20240;-41
2022/10/22 00:06:10;;;;;;;29.20;21.23;;;;;;;12.57;100.00;100867.44;5039843;28;20194;-43
2022/10/22 00:08:36;;;;;;;35.92;24.00;;;;;;;12.55;100.00;100871.13;5039787;28;20191;-48
2022/10/22 00:11:11;;;;;;;35.20;26.33;;;;;;;12.61;100.00;100854.72;5033274;28;20488;-43
2022/10/22 00:13:36;;;;;;;30.02;22.90;;;;;;;12.56;100.00;100862.13;5032815;28;20195;-50
2022/10/22 00:16:02;;;;;;;28.98;20.75;;;;;;;12.60;100.00;100857.50;5032990;28;20646;-42
2022/10/22 00:18:27;;;;;;;30.83;23.95;;;;;;;12.62;100.00;100861.88;5033054;28;20191;-44
2022/10/22 00:20:53;;;;;;;32.92;23.42;;;;;;;12.62;100.00;100867.25;5032891;28;20172;-45
2022/10/22 00:23:18;;;;;;;29.98;23.60;;;;;;;12.69;100.00;100871.38;5032953;28;20203;-43
2022/10/22 00:25:43;;;;;;;35.67;24.08;;;;;;;12.72;100.00;100873.03;5032955;28;20321;-45
2022/10/22 00:28:10;;;;;;;30.80;24.70;;;;;;;12.72;100.00;100873.03;5032457;28;20623;-44
2022/10/22 00:30:36;;;;;;;32.55;24.45;;;;;;;12.67;100.00;100873.25;5032784;28;20177;-46
2022/10/22 00:33:01;;;;;;;28.00;23.25;;;;;;;12.73;100.00;100866.75;5032595;28;20171;-44
2022/10/22 00:35:27;;;;;;;30.45;23.52;;;;;;;12.72;100.00;100867.66;5032833;28;20180;-48
2022/10/22 00:37:53;;;;;;;36.53;27.65;;;;;;;12.72;100.00;100871.22;5014627;28;20190;-42
2022/10/22 00:40:18;;;;;;;33.63;24.88;;;;;;;12.75;100.00;100872.91;5032314;28;20192;-44
2022/10/22 00:42:44;;;;;;;35.10;26.77;;;;;;;12.73;100.00;100866.75;5032571;28;20191;-44
2022/10/22 00:45:09;;;;;;;31.25;24.48;;;;;;;12.75;100.00;100873.78;5032258;28;20288;-47
2022/10/22 00:47:40;;;;;;;35.13;26.67;;;;;;;12.73;100.00;100874.81;5032818;28;20172;-44
2022/10/22 00:50:11;;;;;;;30.83;25.30;;;;;;;12.73;100.00;100872.13;5032585;28;20420;-46
2022/10/22 00:52:37;;;;;;;43.78;29.02;;;;;;;12.73;100.00;100882.88;5032338;28;20172;-44
2022/10/22 00:55:03;;;;;;;34.20;26.38;;;;;;;12.73;100.00;100888.25;5032442;28;20210;-44
2022/10/22 00:57:30;;;;;;;38.30;28.83;;;;;;;12.70;100.00;100875.81;5031940;28;20681;-44
2022/10/22 00:59:56;;;;;;;37.80;27.98;;;;;;;12.73;100.00;100886.44;5031661;28;20192;-50
2022/10/22 01:02:22;;;;;;;39.35;29.10;;;;;;;12.73;100.00;100888.25;5033065;28;20243;-47
2022/10/22 01:04:48;;;;;;;44.55;30.35;;;;;;;12.68;100.00;100888.47;5032079;28;20188;-43
2022/10/22 01:07:20;;;;;;;38.95;28.42;;;;;;;12.73;100.00;100886.44;5032148;28;20168;-42
2022/10/22 01:10:06;;;;;;;47.13;30.67;;;;;;;12.70;100.00;100880.31;5031553;28;20191;-41
2022/10/22 01:13:00;;;;;;;45.03;30.27;;;;;;;12.73;100.00;100889.13;5031667;28;20237;-43
2022/10/22 01:15:28;;;;;;;45.30;30.48;;;;;;;12.73;100.00;100886.44;5031802;28;20176;-43
2022/10/22 01:18:13;;;;;;;37.92;28.60;;;;;;;12.75;100.00;100889.91;5013900;28;20184;-44
2022/10/22 01:21:00;;;;;;;44.22;33.28;;;;;;;12.72;100.00;100897.25;5031489;28;20176;-43
2022/10/22 01:24:17;;;;;;;40.22;30.65;;;;;;;12.74;100.00;100881.91;5031749;28;20245;-44
2022/10/22 01:27:07;;;;;;;46.83;31.60;;;;;;;12.77;100.00;100877.28;5018484;28;20204;-43
2022/10/22 01:29:38;;;;;;;39.65;29.55;;;;;;;12.78;100.00;100883.53;5031376;28;20171;-44
2022/10/22 01:32:11;;;;;;;43.53;31.23;;;;;;;12.77;100.00;100890.72;5031604;28;20164;-43
2022/10/22 01:34:41;;;;;;;40.40;28.73;;;;;;;12.76;100.00;100880.91;5031131;28;20602;-44
2022/10/22 01:37:08;;;;;;;42.67;30.70;;;;;;;12.73;100.00;100878.34;5031340;28;20279;-42
2022/10/22 01:39:37;;;;;;;47.47;33.47;;;;;;;12.73;100.00;100877.50;5030244;28;20211;-45
2022/10/22 01:42:02;;;;;;;34.33;26.75;;;;;;;12.77;100.00;100876.41;5031189;28;20179;-44
2022/10/22 01:44:34;;;;;;;36.13;28.63;;;;;;;12.79;100.00;100871.84;5013309;28;20291;-45
2022/10/22 01:47:37;;;;;;;45.65;34.40;;;;;;;12.77;100.00;100871.91;5031363;28;20696;-45
2022/10/22 01:50:44;;;;;;;33.83;26.98;;;;;;;12.78;100.00;100870.06;5029316;28;20234;-43
2022/10/22 01:53:33;;;;;;;41.00;30.30;;;;;;;12.70;100.00;100880.31;4997202;28;20749;-43
2022/10/22 01:56:16;;;;;;;33.17;27.25;;;;;;;12.73;100.00;100875.69;5029859;28;20256;-48
2022/10/22 01:59:03;;;;;;;41.03;29.42;;;;;;;12.67;100.00;100878.63;5037729;28;20226;-42
2022/10/22 02:01:51;;;;;;;33.65;28.25;;;;;;;12.62;100.00;100877.13;5051160;28;20164;-45
2022/10/22 02:04:20;;;;;;;41.90;30.15;;;;;;;12.60;100.00;100884.38;5038144;28;20222;-44
2022/10/22 02:06:49;;;;;;;50.42;34.72;;;;;;;12.67;100.00;100880.47;5051308;28;20163;-43
2022/10/22 02:09:18;;;;;;;46.50;32.83;;;;;;;12.69;100.00;100892.03;5050731;28;20156;-46
2022/10/22 02:11:45;;;;;;;47.72;32.75;;;;;;;12.68;100.00;100885.78;5051032;28;20193;-40
2022/10/22 02:14:12;;;;;;;49.60;34.67;;;;;;;12.71;100.00;100885.63;5050759;28;20548;-41
2022/10/22 02:16:43;;;;;;;47.78;33.72;;;;;;;12.67;100.00;100885.84;5033382;28;20179;-42
2022/10/22 02:19:28;;;;;;;49.83;33.70;;;;;;;12.70;100.00;100894.66;5032824;28;20222;-43
2022/10/22 02:21:54;;;;;;;48.92;33.08;;;;;;;12.67;100.00;100889.38;5050569;28;20168;-44
2022/10/22 02:24:20;;;;;;;45.33;33.45;;;;;;;12.71;100.00;100891.00;5050844;28;20207;-47
2022/10/22 02:26:57;;;;;;;50.28;34.22;;;;;;;12.72;100.00;100894.56;5050580;28;20235;-45
2022/10/22 02:29:33;;;;;;;42.92;31.02;;;;;;;12.76;100.00;100891.66;5050677;28;20163;-43
2022/10/22 02:32:01;;;;;;;53.05;32.95;;;;;;;12.73;100.00;100885.56;5050918;28;20182;-42
2022/10/22 02:34:30;;;;;;;50.05;34.15;;;;;;;12.73;100.00;100901.69;5033040;28;20199;-44
2022/10/22 02:36:58;;;;;;;49.42;34.05;;;;;;;12.73;100.00;100889.13;5050784;28;20291;-44
2022/10/22 02:39:24;;;;;;;50.78;33.78;;;;;;;12.68;100.00;100891.16;5050174;28;20218;-48
2022/10/22 02:41:50;;;;;;;44.72;31.10;;;;;;;12.71;100.00;100882.94;5050270;28;20626;-42
2022/10/22 02:44:20;;;;;;;56.33;34.92;;;;;;;12.72;100.00;100895.41;5049928;28;20690;-44
2022/10/22 02:46:45;;;;;;;45.65;31.15;;;;;;;12.76;100.00;100899.72;5050154;28;20168;-42
2022/10/22 02:49:11;;;;;;;50.03;33.55;;;;;;;12.68;100.00;100884.88;5050005;28;20156;-43
2022/10/22 02:51:36;;;;;;;51.85;34.33;;;;;;;12.65;100.00;100885.91;5052097;28;20202;-41
2022/10/22 02:54:02;;;;;;;51.80;33.90;;;;;;;12.69;100.00;100881.25;5054286;28;20808;-42
2022/10/22 02:56:28;;;;;;;50.45;32.63;;;;;;;12.68;100.00;100883.09;5053291;28;20156;-41
2022/10/22 02:58:53;;;;;;;41.50;30.38;;;;;;;12.72;100.00;100895.41;5054333;28;20222;-43
2022/10/22 03:01:18;;;;;;;47.35;31.35;;;;;;;12.75;100.00;100889.06;5054291;28;20190;-46
2022/10/22 03:03:44;;;;;;;42.22;30.48;;;;;;;12.70;100.00;100889.28;5053906;28;20888;-42
2022/10/22 03:06:10;;;;;;;46.10;31.88;;;;;;;12.72;100.00;100886.50;5054548;28;20160;-41
2022/10/22 03:08:35;;;;;;;51.05;33.72;;;;;;;12.73;100.00;100896.31;5053963;28;20164;-43
2022/10/22 03:11:00;;;;;;;51.70;34.47;;;;;;;12.72;100.00;100886.50;5054191;28;20189;-40
2022/10/22 03:13:26;;;;;;;47.50;32.15;;;;;;;12.77;100.00;100893.41;5035891;28;20211;-46
2022/10/22 03:15:51;;;;;;;46.95;33.45;;;;;;;12.77;100.00;100903.28;5036157;28;20179;-46
2022/10/22 03:18:17;;;;;;;53.70;34.92;;;;;;;12.72;100.00;100897.25;5054078;28;20163;-41
2022/10/22 03:20:42;;;;;;;52.45;33.55;;;;;;;12.69;100.00;100890.19;5036049;28;20179;-41
2022/10/22 03:23:10;;;;;;;47.13;33.25;;;;;;;12.70;100.00;100896.44;5053707;28;20282;-42
2022/10/22 03:25:36;;;;;;;52.83;35.95;;;;;;;12.66;100.00;100898.41;5053409;28;20283;-45
2022/10/22 03:28:06;;;;;;;50.58;33.80;;;;;;;12.71;100.00;100892.81;5053823;28;20170;-46
2022/10/22 03:30:31;;;;;;;53.03;35.72;;;;;;;12.74;100.00;100893.53;5053731;28;20615;-42
2022/10/22 03:32:57;;;;;;;53.13;33.28;;;;;;;12.69;100.00;100897.41;5053356;28;20179;-43
2022/10/22 03:35:23;;;;;;;46.63;33.35;;;;;;;12.67;100.00;100896.59;5053993;28;20261;-44
2022/10/22 03:37:49;;;;;;;49.88;31.38;;;;;;;12.59;100.00;100888.84;5053208;28;20159;-44
2022/10/22 03:40:14;;;;;;;37.50;28.70;;;;;;;12.57;100.00;100890.75;5053267;28;20187;-44
2022/10/22 03:42:40;;;;;;;55.20;35.28;;;;;;;12.57;100.00;100882.69;5053341;28;20213;-42
2022/10/22 03:45:07;;;;;;;40.50;29.15;;;;;;;12.58;100.00;100890.69;5052173;28;20218;-42
2022/10/22 03:47:33;;;;;;;38.95;28.85;;;;;;;12.50;100.00;100889.28;5053399;28;20225;-45
2022/10/22 03:49:58;;;;;;;46.92;31.48;;;;;;;12.50;100.00;100889.28;5053088;28;20163;-41
2022/10/22 03:52:24;;;;;;;39.85;28.52;;;;;;;12.48;100.00;100894.72;5053178;28;20777;-41
2022/10/22 03:54:49;;;;;;;50.85;33.65;;;;;;;12.36;100.00;100897.97;5052887;28;20685;-43
2022/10/22 03:57:15;;;;;;;42.67;29.30;;;;;;;12.37;100.00;100905.09;5052213;28;20167;-46
2022/10/22 03:59:42;;;;;;;43.75;29.70;;;;;;;12.39;100.00;100921.16;5053238;28;20536;-41
2022/10/22 04:02:09;;;;;;;42.72;29.00;;;;;;;12.26;100.00;100905.56;5052563;28;20210;-43
2022/10/22 04:04:35;;;;;;;43.10;29.20;;;;;;;12.20;100.00;100916.59;5051500;28;20410;-41
2022/10/22 04:07:00;;;;;;;45.80;31.38;;;;;;;12.20;100.00;100916.59;5052716;28;20238;-41
2022/10/22 04:09:26;;;;;;;37.35;27.67;;;;;;;12.11;100.00;100915.19;5052787;28;20250;-43
2022/10/22 04:11:51;;;;;;;41.55;30.45;;;;;;;12.14;100.00;100920.41;5052802;28;20615;-45
2022/10/22 04:14:17;;;;;;;41.53;29.60;;;;;;;12.16;100.00;100928.41;5052714;28;20623;-42
2022/10/22 04:16:42;;;;;;;40.13;28.13;;;;;;;12.08;100.00;100930.53;5053336;28;20642;-42
2022/10/22 04:19:08;;;;;;;38.83;27.05;;;;;;;12.06;100.00;100927.91;5052882;28;20253;-44
2022/10/22 04:21:34;;;;;;;32.25;25.20;;;;;;;12.00;100.00;100921.94;5052546;28;20171;-42
2022/10/22 04:24:00;;;;;;;36.00;25.75;;;;;;;11.94;100.00;100925.78;5052536;28;20191;-42
2022/10/22 04:26:26;;;;;;;35.83;26.27;;;;;;;11.75;100.00;100925.63;5052563;28;20271;-41
2022/10/22 04:28:52;;;;;;;31.98;25.33;;;;;;;11.54;100.00;100930.06;5052809;28;20635;-42
2022/10/22 04:31:21;;;;;;;36.20;25.30;;;;;;;11.57;100.00;100929.94;5052542;28;20173;-42
2022/10/22 04:33:47;;;;;;;31.10;23.73;;;;;;;11.66;100.00;100929.56;5052386;28;20199;-43
2022/10/22 04:36:17;;;;;;;26.45;22.38;;;;;;;11.65;100.00;100921.56;5052495;28;20171;-43
2022/10/22 04:38:44;;;;;;;28.20;20.13;;;;;;;11.60;100.00;100935.19;5052111;28;20226;-44
2022/10/22 04:41:16;;;;;;;24.67;19.98;;;;;;;11.61;100.00;100939.63;5052201;28;20179;-43
2022/10/22 04:43:42;;;;;;;30.15;20.88;;;;;;;11.57;100.00;100942.47;5052181;28;20681;-43
2022/10/22 04:46:09;;;;;;;43.00;25.50;;;;;;;11.42;100.00;100950.22;5052763;28;20176;-43
2022/10/22 04:48:40;;;;;;;28.23;22.05;;;;;;;11.50;100.00;100950.78;5052307;28;20168;-44
2022/10/22 04:51:07;;;;;;;31.25;24.40;;;;;;;11.54;100.00;100956.88;5052039;28;20190;-43
2022/10/22 04:53:37;;;;;;;36.70;26.02;;;;;;;11.64;100.00;100960.09;5052078;28;20282;-45
2022/10/22 04:56:10;;;;;;;42.58;27.27;;;;;;;11.59;100.00;100965.66;5052041;28;20167;-42
2022/10/22 04:58:37;;;;;;;55.63;34.97;;;;;;;11.73;100.00;100975.81;5052119;28;20246;-41
2022/10/22 05:01:17;;;;;;;138.13;43.60;;;;;;;11.93;100.00;100958.91;5051964;28;20217;-42
2022/10/22 05:03:43;;;;;;;102.47;44.50;;;;;;;12.04;100.00;100966.53;5051433;28;20238;-42
2022/10/22 05:06:09;;;;;;;70.55;40.90;;;;;;;12.08;100.00;100965.47;5051971;28;20164;-42
2022/10/22 05:08:35;;;;;;;100.88;44.65;;;;;;;12.14;100.00;100968.75;5051312;28;20178;-41
2022/10/22 05:11:09;;;;;;;65.93;40.13;;;;;;;12.16;100.00;100966.88;5051784;28;20517;-40
2022/10/22 05:13:34;;;;;;;94.85;42.25;;;;;;;12.15;100.00;100970.50;5051668;28;20199;-40
2022/10/22 05:16:01;;;;;;;88.57;42.47;;;;;;;12.18;100.00;100973.97;5050629;28;20176;-43
2022/10/22 05:18:26;;;;;;;100.78;44.40;;;;;;;12.21;100.00;100968.50;5051663;28;20164;-41
2022/10/22 05:20:52;;;;;;;64.70;37.53;;;;;;;12.22;100.00;100968.41;5033626;28;20253;-40
2022/10/22 05:23:17;;;;;;;79.93;44.53;;;;;;;12.26;100.00;100970.03;5033674;28;20697;-44
2022/10/22 05:25:42;;;;;;;133.48;43.92;;;;;;;12.25;100.00;100973.66;5051559;28;20163;-43
2022/10/22 05:28:08;;;;;;;119.80;44.55;;;;;;;12.23;100.00;100975.53;5051413;28;20167;-42
2022/10/22 05:30:33;;;;;;;67.78;39.28;;;;;;;12.22;100.00;100972.91;5051380;28;20175;-42
2022/10/22 05:32:59;;;;;;;110.60;40.72;;;;;;;12.21;100.00;100965.81;5050765;28;20206;-43
2022/10/22 05:35:24;;;;;;;161.02;46.05;;;;;;;12.19;100.00;100973.94;5033781;28;20275;-43
2022/10/22 05:37:50;;;;;;;108.10;43.83;;;;;;;12.17;100.00;100975.81;5051347;28;20172;-40
2022/10/22 05:40:15;;;;;;;78.25;39.83;;;;;;;12.21;100.00;100969.38;5051030;28;20203;-44
2022/10/22 05:42:40;;;;;;;164.25;45.17;;;;;;;12.18;100.00;100969.50;5051053;28;20254;-42
2022/10/22 05:45:07;;;;;;;73.15;40.85;;;;;;;12.19;100.00;100965.00;5033062;28;20202;-43
2022/10/22 05:47:32;;;;;;;153.68;44.78;;;;;;;12.16;100.00;100971.38;5051287;28;20588;-43
2022/10/22 05:49:58;;;;;;;177.75;45.30;;;;;;;12.14;100.00;100963.38;5050868;28;20163;-42
2022/10/22 05:52:23;;;;;;;64.68;39.28;;;;;;;12.19;100.00;100963.19;5050945;28;20229;-42
2022/10/22 05:54:49;;;;;;;53.88;31.90;;;;;;;12.21;100.00;100958.63;5051008;28;20284;-43
2022/10/22 05:57:14;;;;;;;50.05;31.75;;;;;;;12.20;100.00;100964.94;5050936;28;20619;-42
2022/10/22 05:59:40;;;;;;;61.60;36.03;;;;;;;12.20;100.00;100961.38;5050922;28;20233;-45
2022/10/22 06:02:08;;;;;;;54.53;33.85;;;;;;;12.19;100.00;100962.31;5051212;28;20209;-41
2022/10/22 06:04:33;;;;;;;76.85;38.75;;;;;;;12.11;100.00;100974.28;5050695;28;20241;-41
2022/10/22 06:06:59;;;;;;;52.92;32.75;;;;;;;12.14;100.00;100976.81;5032905;28;20219;-41
2022/10/22 06:09:31;;;;;;;158.23;42.67;;;;;;;12.07;100.00;100982.50;5046332;28;20563;-47
2022/10/22 06:11:57;;;;;;;139.02;41.22;;;;;;;12.10;100.00;100979.69;5038885;28;20222;-45
2022/10/22 06:14:23;;;;;;;73.25;39.13;;;;;;;12.11;100.00;100981.44;5039912;28;20208;-45
2022/10/22 06:16:50;;;;;;;51.33;33.03;;;;;;;12.15;100.00;100986.59;5042701;28;20187;-49
2022/10/22 06:19:18;;;;;;;63.38;36.15;;;;;;;12.22;100.00;100991.72;5038468;28;20226;-47
2022/10/22 06:21:44;;;;;;;84.50;41.45;;;;;;;12.11;100.00;100995.75;5037587;28;20253;-48
2022/10/22 06:24:11;;;;;;;218.77;44.60;;;;;;;12.05;100.00;100997.81;5021841;28;20298;-48
2022/10/22 06:26:36;;;;;;;110.18;41.72;;;;;;;12.07;100.00;100993.22;5039004;28;20249;-48
2022/10/22 06:29:02;;;;;;;104.40;41.75;;;;;;;12.04;100.00;100991.56;5038486;28;20176;-44
2022/10/22 06:31:35;;;;;;;66.13;37.72;;;;;;;12.09;100.00;100994.03;5038457;28;20180;-46
2022/10/22 06:34:02;;;;;;;100.90;41.10;;;;;;;12.09;100.00;101002.09;5039114;28;20200;-45
2022/10/22 06:36:27;;;;;;;144.18;43.70;;;;;;;12.06;100.00;101002.25;5038551;28;20546;-45
2022/10/22 06:38:54;;;;;;;167.48;42.78;;;;;;;12.05;100.00;101003.19;5036948;28;20361;-44
2022/10/22 06:41:20;;;;;;;196.75;45.40;;;;;;;12.02;100.00;101022.09;5037108;28;20458;-46
2022/10/22 06:43:47;;;;;;;84.43;38.42;;;;;;;12.07;100.00;101020.09;5038463;28;20207;-46
2022/10/22 06:46:21;;;;;;;122.88;40.75;;;;;;;12.05;100.00;101022.00;5036965;28;20311;-46
2022/10/22 06:48:58;;;;;;;139.38;43.47;;;;;;;12.08;100.00;101019.16;5037450;28;20183;-44
2022/10/22 06:51:25;;;;;;;125.53;39.65;;;;;;;12.08;100.00;101029.91;5036570;28;20179;-46
2022/10/22 06:53:52;;;;;;;106.63;40.63;;;;;;;12.04;100.00;101022.91;5038913;28;20580;-43
2022/10/22 06:56:20;;;;;;;95.63;41.05;;;;;;;12.03;100.00;101022.06;5036771;28;20184;-47
2022/10/22 06:58:50;;;;;;;96.38;41.67;;;;;;;12.02;100.00;101033.72;5038125;28;20695;-45
2022/10/22 07:01:18;;;;;;;163.55;42.63;;;;;;;12.04;100.00;101030.97;5036244;28;20578;-44
2022/10/22 07:03:44;;;;;;;118.82;43.35;;;;;;;12.01;100.00;101031.13;5035827;28;20215;-47
2022/10/22 07:06:11;;;;;;;90.05;41.83;;;;;;;12.05;100.00;101035.41;5036645;28;20559;-45
2022/10/22 07:08:38;;;;;;;112.97;43.33;;;;;;;12.04;100.00;101037.22;5037584;28;20191;-45
2022/10/22 07:11:10;;;;;;;107.53;43.00;;;;;;;12.03;100.00;101032.78;5035380;28;20188;-47
2022/10/22 07:13:36;;;;;;;105.45;43.38;;;;;;;12.04;100.00;101037.22;5039029;28;20250;-44
2022/10/22 07:16:02;;;;;;;65.22;35.80;;;;;;;12.15;100.00;101045.69;5037583;28;20201;-45
2022/10/22 07:18:28;;;;;;;87.18;42.55;;;;;;;12.15;100.00;101040.31;5037035;28;20188;-45
2022/10/22 07:20:54;;;;;;;99.07;42.90;;;;;;;12.15;100.00;101051.06;5038017;28;20190;-46
2022/10/22 07:23:19;;;;;;;83.65;42.42;;;;;;;12.18;100.00;101051.88;5034704;28;20199;-46
2022/10/22 07:25:45;;;;;;;89.45;42.97;;;;;;;12.21;100.00;101060.69;5037081;28;20183;-45
2022/10/22 07:28:10;;;;;;;101.57;45.15;;;;;;;12.23;100.00;101048.06;5037988;28;20176;-45
2022/10/22 07:30:38;;;;;;;71.50;38.85;;;;;;;12.29;100.00;101049.66;5010507;28;20241;-45
2022/10/22 07:33:03;;;;;;;115.13;48.13;;;;;;;12.30;100.00;101060.31;5037155;28;20236;-48
2022/10/22 07:35:29;;;;;;;81.40;41.78;;;;;;;12.39;100.00;101068.94;5036333;28;20195;-48
2022/10/22 07:37:55;;;;;;;144.75;47.35;;;;;;;12.34;100.00;101061.94;5037737;28;20556;-46
2022/10/22 07:40:21;;;;;;;129.68;49.13;;;;;;;12.36;100.00;101061.88;5041402;28;20210;-48
2022/10/22 07:42:46;;;;;;;99.05;46.75;;;;;;;12.43;100.00;101067.88;5037521;28;20186;-45
2022/10/22 07:45:11;;;;;;;108.18;49.72;;;;;;;12.42;100.00;101079.53;5039577;28;20206;-45
2022/10/22 07:47:37;;;;;;;87.25;44.78;;;;;;;12.48;100.00;101068.53;5042663;28;20176;-48
2022/10/22 07:50:04;;;;;;;79.38;42.65;;;;;;;12.51;100.00;101063.91;5035610;28;20187;-44
2022/10/22 07:52:29;;;;;;;106.75;46.78;;;;;;;12.43;100.00;101087.53;5051106;28;20175;-44
2022/10/22 07:54:54;;;;;;;83.75;43.33;;;;;;;12.49;100.00;101086.44;5047377;28;20568;-44
2022/10/22 07:57:20;;;;;;;97.65;45.72;;;;;;;12.45;100.00;101101.78;5048646;28;20175;-42
2022/10/22 07:59:45;;;;;;;84.65;41.70;;;;;;;12.44;100.00;101104.53;5053369;28;20200;-44
2022/10/22 08:02:11;;;;;;;76.13;41.60;;;;;;;12.46;100.00;101102.66;5043923;28;20180;-43
2022/10/22 08:04:37;;;;;;;84.15;43.45;;;;;;;12.47;100.00;101099.06;5032688;28;20212;-44
2022/10/22 08:07:02;;;;;;;90.65;44.25;;;;;;;12.41;100.00;101110.06;5048233;28;20208;-44
2022/10/22 08:09:27;;;;;;;88.65;43.63;;;;;;;12.42;100.00;101101.94;5039649;28;20175;-42
2022/10/22 08:11:53;;;;;;;78.20;42.20;;;;;;;12.45;100.00;101111.69;5046797;28;20179;-42
2022/10/22 08:14:19;;;;;;;84.82;42.70;;;;;;;12.50;100.00;101109.66;5052594;28;20207;-43
2022/10/22 08:16:45;;;;;;;88.75;44.03;;;;;;;12.46;100.00;101111.63;5053102;28;20258;-44
2022/10/22 08:19:12;;;;;;;82.75;44.13;;;;;;;12.47;100.00;101115.19;5032570;28;20206;-42
2022/10/22 08:21:38;;;;;;;88.97;44.30;;;;;;;12.50;100.00;101120.41;5043768;22;20326;-46
2022/10/22 08:24:05;;;;;;;91.28;44.65;;;;;;;12.50;100.00;101117.72;5037776;28;20257;-43
2022/10/22 08:26:30;;;;;;;88.03;43.78;;;;;;;12.51;100.00;101106.06;5007139;28;20710;-42
2022/10/22 08:28:56;;;;;;;82.38;43.67;;;;;;;12.55;100.00;101119.28;5017379;28;20249;-42
2022/10/22 08:31:22;;;;;;;71.07;40.95;;;;;;;12.60;100.00;101107.47;5020985;28;20576;-42
2022/10/22 08:33:48;;;;;;;81.32;42.78;;;;;;;12.63;100.00;101115.41;5018736;28;20277;-42
2022/10/22 08:36:13;;;;;;;81.53;44.13;;;;;;;12.57;100.00;101121.91;5013441;28;20194;-43
2022/10/22 08:38:39;;;;;;;98.10;45.83;;;;;;;12.62;100.00;101119.91;4989379;28;20264;-43
2022/10/22 08:41:07;;;;;;;79.95;44.08;;;;;;;12.66;100.00;101108.09;5017519;28;20181;-45
2022/10/22 08:43:40;;;;;;;81.35;44.05;;;;;;;12.65;100.00;101114.38;5018078;28;20214;-45
2022/10/22 08:46:24;;;;;;;76.38;41.97;;;;;;;12.69;100.00;101116.00;5014544;28;20222;-47
2022/10/22 08:48:54;;;;;;;81.35;44.40;;;;;;;12.72;100.00;101123.94;5015282;28;20591;-45
2022/10/22 08:51:26;;;;;;;78.75;44.75;;;;;;;12.80;100.00;101118.25;5015973;28;20740;-45
2022/10/22 08:54:09;;;;;;;70.50;41.13;;;;;;;12.87;100.00;101118.84;5013895;28;20710;-47
2022/10/22 08:56:36;;;;;;;69.65;39.55;;;;;;;13.03;100.00;101119.94;5016470;28;20180;-45
2022/10/22 08:59:15;;;;;;;69.07;40.40;;;;;;;13.06;100.00;101130.56;5019826;28;20760;-46
2022/10/22 09:01:45;;;;;;;60.92;38.03;;;;;;;13.11;100.00;101131.22;5019046;28;20231;-44
2022/10/22 09:04:25;;;;;;;70.90;41.83;;;;;;;13.14;100.00;101127.53;5014260;28;20553;-46
2022/10/22 09:06:54;;;;;;;58.58;37.35;;;;;;;13.22;100.00;101133.44;5013097;28;20182;-46
2022/10/22 09:09:20;;;;;;;62.47;39.00;;;;;;;13.18;100.00;101137.22;5020954;28;20219;-46
2022/10/22 09:11:49;;;;;;;60.85;38.35;;;;;;;13.23;100.00;101142.38;5016631;28;20175;-45
2022/10/22 09:14:18;;;;;;;65.38;39.63;;;;;;;13.14;100.00;101149.94;5019320;28;20205;-44
2022/10/22 09:17:12;;;;;;;59.55;37.85;;;;;;;13.13;100.00;101150.88;5015069;28;20512;-46
2022/10/22 09:20:01;;;;;;;56.60;36.58;;;;;;;13.11;100.00;101160.81;5015122;28;20222;-45
2022/10/22 09:22:50;;;;;;;54.78;35.90;;;;;;;13.09;100.00;101151.06;5020861;28;20254;-44
2022/10/22 09:25:20;;;;;;;51.20;33.05;;;;;;;13.06;100.00;101156.59;5004316;28;20246;-46
2022/10/22 09:27:47;;;;;;;47.95;34.63;;;;;;;13.01;100.00;101154.09;5018680;28;20210;-46
2022/10/22 09:30:20;;;;;;;52.08;35.72;;;;;;;13.01;100.00;101143.34;5010914;28;20673;-46
2022/10/22 09:32:49;;;;;;;55.47;35.10;;;;;;;13.02;100.00;101149.59;5015299;28;21050;-47
2022/10/22 09:35:22;;;;;;;51.97;34.72;;;;;;;13.03;100.00;101145.94;5021317;28;20192;-45
2022/10/22 09:37:50;;;;;;;53.67;34.83;;;;;;;13.01;100.00;101151.41;5014009;28;20188;-45
2022/10/22 09:40:17;;;;;;;49.55;34.55;;;;;;;12.96;100.00;101151.59;5018879;28;20578;-46
2022/10/22 09:42:45;;;;;;;50.20;34.30;;;;;;;12.90;100.00;101154.56;5015520;28;20200;-45
2022/10/22 09:45:18;;;;;;;53.15;35.25;;;;;;;12.98;100.00;101151.53;5020148;28;20192;-47
2022/10/22 09:47:44;;;;;;;55.60;36.35;;;;;;;12.99;100.00;101154.16;5015788;28;20279;-45
2022/10/22 09:50:27;;;;;;;54.30;35.53;;;;;;;13.07;100.00;101153.81;5015213;28;20258;-46
2022/10/22 09:53:04;;;;;;;53.33;35.40;;;;;;;13.14;100.00;101140.97;5016100;28;20195;-46
2022/10/22 09:55:30;;;;;;;49.78;34.75;;;;;;;13.05;100.00;101144.94;5013181;28;20591;-46
2022/10/22 09:57:59;;;;;;;49.50;34.08;;;;;;;13.09;100.00;101149.25;5018378;28;20664;-46
2022/10/22 10:00:26;;;;;;;51.40;34.83;;;;;;;13.21;100.00;101150.53;5011883;28;20211;-46
2022/10/22 10:02:58;;;;;;;44.50;33.33;;;;;;;13.26;100.00;101150.34;5014344;28;20311;-46
2022/10/22 10:05:30;;;;;;;44.92;32.72;;;;;;;13.29;100.00;101148.41;5021207;28;20200;-47
2022/10/22 10:07:57;;;;;;;47.30;35.17;;;;;;;13.31;100.00;101151.03;5019947;28;20203;-48
2022/10/22 10:10:45;;;;;;;47.17;33.25;;;;;;;13.43;100.00;101161.25;5018347;28;20191;-50
2022/10/22 10:13:10;;;;;;;47.97;32.33;;;;;;;13.38;100.00;101148.00;5011517;28;20298;-50
2022/10/22 10:15:51;;;;;;;43.72;32.17;;;;;;;13.35;100.00;101142.75;5018693;28;20271;-46
2022/10/22 10:18:58;;;;;;;39.42;30.20;;;;;;;13.43;100.00;101146.94;5014380;28;20188;-47
2022/10/22 10:21:52;;;;;;;45.25;32.55;;;;;;;13.45;100.00;101151.31;5018138;28;20214;-48
2022/10/22 10:24:54;;;;;;;47.22;32.05;;;;;;;13.40;100.00;101145.22;5020088;28;20311;-50
2022/10/22 10:27:34;;;;;;;50.03;32.63;;;;;;;13.50;100.00;101140.31;4975488;28;20207;-48
2022/10/22 10:30:20;;;;;;;43.20;31.45;;;;;;;13.70;100.00;101134.88;5013758;28;20646;-47
2022/10/22 10:33:04;;;;;;;43.17;30.70;;;;;;;13.73;100.00;101136.56;5015184;28;20179;-49
2022/10/22 10:36:01;;;;;;;42.42;30.92;;;;;;;13.84;100.00;101127.97;5019100;28;20169;-48
2022/10/22 10:39:11;;;;;;;42.55;30.88;;;;;;;13.85;100.00;101119.84;5015600;28;20176;-47
2022/10/22 10:41:50;;;;;;;44.22;30.77;;;;;;;14.04;100.00;101114.47;4928936;29;20214;-48
2022/10/22 10:44:23;;;;;;;41.58;29.45;;;;;;;14.31;100.00;101106.84;4932917;29;20219;-48
2022/10/22 10:46:59;;;;;;;35.80;28.80;;;;;;;14.67;100.00;101102.41;4987061;28;20204;-48
2022/10/22 10:49:32;;;;;;;33.05;27.33;;;;;;;15.01;100.00;101093.44;5013335;28;20651;-49
2022/10/22 10:52:26;;;;;;;34.10;25.33;;;;;;;15.13;100.00;101092.81;5019387;28;20219;-46
2022/10/22 10:55:28;;;;;;;27.77;23.05;;;;;;;15.14;100.00;101081.03;4982013;28;20634;-47
2022/10/22 10:58:12;;;;;;;27.73;21.23;;;;;;;15.20;100.00;101075.31;4967737;28;20579;-47
2022/10/22 11:00:52;;;;;;;27.52;21.92;;;;;;;15.12;100.00;101069.44;5017235;28;20294;-47
2022/10/22 11:03:42;;;;;;;23.38;19.70;;;;;;;15.23;100.00;101063.47;5016498;28;20909;-45
2022/10/22 11:06:11;;;;;;;25.98;19.50;;;;;;;15.52;100.00;101061.88;5016076;28;20176;-48
2022/10/22 11:08:44;;;;;;;25.20;19.83;;;;;;;15.61;100.00;101058.69;5016101;28;20200;-47
2022/10/22 11:11:25;;;;;;;24.65;19.25;;;;;;;15.73;100.00;101034.69;5017257;28;20287;-49
2022/10/22 11:14:15;;;;;;;22.55;17.92;;;;;;;15.60;100.00;101032.63;5019609;28;20211;-49